الصفحة الرئيسية
METAR-TAF:

METAR-TAF

مطار :

مطار قوانغتشو باييون الدولي

قوانغتشو, جمهورية الصين الشعبية

دائرة عرض: 23-10N, خط طول: 113-20E, ارتفاع: 8 متر

مراقبة الطقس الحالي

تاريخ ووقت الإصدار 16 دقيقة قبل الساعة 02:30UTC
رياح هادئة
درجة الحرارة 32°درجة مئوية
الرطوبة 63%
ضغط 1006 hPa
الرؤية 10 كم أو أكثر
غيوم قليلة على ارتفاع 2600 قدم
غيوم قليلة على ارتفاع 3300 قدم, مزن ركامية عمودية.

METAR: ZGGG 080230Z 00000MPS 9999 FEW026 FEW033TCU 32/24 Q1006 NOSIG

زمن: 10:46 (02:46 UTC)

توقعات

تاريخ ووقت الإصدار 5ساعات و 43 دقيقة قبل الساعة 21:03UTC
التوقعات صالحة من08 الساعة 00 UTC إلى 08 الساعة 24 UTC
ريح 6 عقدة من الجنوب/الجنوب الشرقي
الرؤية: 8000 متر
غيوم مفككة على ارتفاع 3000 قدم

TAF: ZGGG 072103Z 0800/0824 16003MPS 8000 BKN030 TX35/0807Z TN27/0822Z

أرصاد الطقس والتوقعات من أكثر من 4000 مطار (تقارير الطقس للمطار METAR والتنبؤ بالطقس بالمطارTAF).

المحطات المتاحة هي النقط الصفراء والحمراء على الخريطة.

حرك المؤشر فوق النقطة لمعرفة اسم المحطة.

ثم انقر لمعرفة أرصاد وتوقعات الطقس.

لتغيير الخارطة: اضغط على الأزرار الخضراء مع رمز الصليب الأسود للتكبير. على الزر الأخضر مع شرطة للتصغير، أو على الأسهم الخضراء للخرائط المجاورة.


METAR-TAF: